sensor_id;sensor_type;location;lat;lon;timestamp;pressure;altitude;pressure_sealevel;temperature;humidity
66524;BME280;53350;52.210;5.160;2024-02-23T00:01:32;98632.13;;;8.21;78.51
66524;BME280;53350;52.210;5.160;2024-02-23T00:03:59;98640.44;;;8.27;78.49
66524;BME280;53350;52.210;5.160;2024-02-23T00:06:27;98641.88;;;8.34;78.41
66524;BME280;53350;52.210;5.160;2024-02-23T00:08:54;98650.06;;;8.44;77.75
66524;BME280;53350;52.210;5.160;2024-02-23T00:11:23;98656.28;;;8.39;77.98
66524;BME280;53350;52.210;5.160;2024-02-23T00:13:49;98665.31;;;8.49;77.41
66524;BME280;53350;52.210;5.160;2024-02-23T00:16:16;98672.00;;;8.53;77.42
66524;BME280;53350;52.210;5.160;2024-02-23T00:18:42;98656.81;;;8.47;76.53
66524;BME280;53350;52.210;5.160;2024-02-23T00:21:09;98668.94;;;8.65;76.24
66524;BME280;53350;52.210;5.160;2024-02-23T00:23:35;98674.66;;;8.72;75.03
66524;BME280;53350;52.210;5.160;2024-02-23T00:26:02;98673.88;;;8.70;75.59
66524;BME280;53350;52.210;5.160;2024-02-23T00:28:30;98679.13;;;8.67;75.54
66524;BME280;53350;52.210;5.160;2024-02-23T00:30:57;98691.00;;;8.69;75.49
66524;BME280;53350;52.210;5.160;2024-02-23T00:33:23;98684.06;;;8.72;75.69
66524;BME280;53350;52.210;5.160;2024-02-23T00:35:49;98678.78;;;8.76;75.72
66524;BME280;53350;52.210;5.160;2024-02-23T00:38:16;98670.16;;;8.77;75.10
66524;BME280;53350;52.210;5.160;2024-02-23T00:40:42;98683.94;;;8.75;75.04
66524;BME280;53350;52.210;5.160;2024-02-23T00:43:09;98674.03;;;8.87;74.12
66524;BME280;53350;52.210;5.160;2024-02-23T00:45:37;98691.19;;;8.87;74.17
66524;BME280;53350;52.210;5.160;2024-02-23T00:48:03;98691.88;;;8.91;74.00
66524;BME280;53350;52.210;5.160;2024-02-23T00:50:30;98688.50;;;8.90;74.17
66524;BME280;53350;52.210;5.160;2024-02-23T00:52:57;98700.38;;;8.93;73.71
66524;BME280;53350;52.210;5.160;2024-02-23T00:55:23;98708.19;;;8.90;73.80
66524;BME280;53350;52.210;5.160;2024-02-23T00:57:52;98704.97;;;8.84;74.25
66524;BME280;53350;52.210;5.160;2024-02-23T01:00:18;98713.56;;;8.83;73.71
66524;BME280;53350;52.210;5.160;2024-02-23T01:02:46;98718.69;;;8.83;73.77
66524;BME280;53350;52.210;5.160;2024-02-23T01:05:13;98714.41;;;8.84;73.42
66524;BME280;53350;52.210;5.160;2024-02-23T01:07:39;98721.22;;;8.85;73.63
66524;BME280;53350;52.210;5.160;2024-02-23T01:10:06;98723.59;;;8.90;73.69
66524;BME280;53350;52.210;5.160;2024-02-23T01:12:33;98738.22;;;8.87;74.27
66524;BME280;53350;52.210;5.160;2024-02-23T01:15:00;98734.00;;;8.86;74.05
66524;BME280;53350;52.210;5.160;2024-02-23T01:17:26;98740.63;;;8.92;73.68
66524;BME280;53350;52.210;5.160;2024-02-23T01:19:54;98744.84;;;8.93;73.27
66524;BME280;53350;52.210;5.160;2024-02-23T01:22:20;98750.09;;;8.90;73.88
66524;BME280;53350;52.210;5.160;2024-02-23T01:24:47;98747.53;;;8.90;73.94
66524;BME280;53350;52.210;5.160;2024-02-23T01:27:13;98758.75;;;8.87;73.89
66524;BME280;53350;52.210;5.160;2024-02-23T01:29:40;98754.53;;;8.86;74.00
66524;BME280;53350;52.210;5.160;2024-02-23T01:32:06;98768.13;;;8.88;73.58
66524;BME280;53350;52.210;5.160;2024-02-23T01:34:33;98770.66;;;8.90;73.03
66524;BME280;53350;52.210;5.160;2024-02-23T01:37:01;98777.53;;;8.90;72.96
66524;BME280;53350;52.210;5.160;2024-02-23T01:39:28;98763.25;;;8.82;72.79
66524;BME280;53350;52.210;5.160;2024-02-23T01:41:54;98776.97;;;8.81;72.09
66524;BME280;53350;52.210;5.160;2024-02-23T01:44:21;98778.94;;;8.75;72.02
66524;BME280;53350;52.210;5.160;2024-02-23T01:46:47;98773.31;;;8.65;72.19
66524;BME280;53350;52.210;5.160;2024-02-23T01:49:14;98776.78;;;8.64;71.63
66524;BME280;53350;52.210;5.160;2024-02-23T01:51:41;98785.53;;;8.58;71.93
66524;BME280;53350;52.210;5.160;2024-02-23T01:54:09;98796.22;;;8.47;71.87
66524;BME280;53350;52.210;5.160;2024-02-23T01:56:36;98792.78;;;8.47;71.71
66524;BME280;53350;52.210;5.160;2024-02-23T01:59:05;98792.31;;;8.35;71.71
66524;BME280;53350;52.210;5.160;2024-02-23T02:01:32;98793.28;;;8.33;72.10
66524;BME280;53350;52.210;5.160;2024-02-23T02:03:59;98794.94;;;8.34;71.45
66524;BME280;53350;52.210;5.160;2024-02-23T02:06:25;98796.84;;;8.29;72.23
66524;BME280;53350;52.210;5.160;2024-02-23T02:08:51;98805.31;;;8.31;70.53
66524;BME280;53350;52.210;5.160;2024-02-23T02:11:19;98805.81;;;8.17;70.92
66524;BME280;53350;52.210;5.160;2024-02-23T02:13:46;98806.13;;;8.08;70.75
66524;BME280;53350;52.210;5.160;2024-02-23T02:16:12;98807.13;;;8.04;71.10
66524;BME280;53350;52.210;5.160;2024-02-23T02:18:39;98804.72;;;7.99;71.75
66524;BME280;53350;52.210;5.160;2024-02-23T02:21:05;98809.28;;;7.91;72.65
66524;BME280;53350;52.210;5.160;2024-02-23T02:23:32;98811.06;;;7.89;72.68
66524;BME280;53350;52.210;5.160;2024-02-23T02:25:58;98815.34;;;7.88;73.26
66524;BME280;53350;52.210;5.160;2024-02-23T02:28:26;98825.59;;;7.88;73.37
66524;BME280;53350;52.210;5.160;2024-02-23T02:30:53;98822.06;;;7.92;73.65
66524;BME280;53350;52.210;5.160;2024-02-23T02:33:19;98821.88;;;7.97;73.90
66524;BME280;53350;52.210;5.160;2024-02-23T02:35:46;98823.41;;;8.03;74.04
66524;BME280;53350;52.210;5.160;2024-02-23T02:38:13;98822.50;;;8.04;73.91
66524;BME280;53350;52.210;5.160;2024-02-23T02:40:39;98821.50;;;8.08;73.66
66524;BME280;53350;52.210;5.160;2024-02-23T02:43:06;98821.88;;;7.97;74.25
66524;BME280;53350;52.210;5.160;2024-02-23T02:45:34;98830.19;;;8.04;74.16
66524;BME280;53350;52.210;5.160;2024-02-23T02:48:01;98823.47;;;8.01;74.32
66524;BME280;53350;52.210;5.160;2024-02-23T02:50:27;98832.09;;;7.98;74.97
66524;BME280;53350;52.210;5.160;2024-02-23T02:52:54;98823.75;;;7.92;75.14
66524;BME280;53350;52.210;5.160;2024-02-23T02:55:20;98830.72;;;7.88;75.85
66524;BME280;53350;52.210;5.160;2024-02-23T02:57:47;98827.41;;;7.84;76.24
66524;BME280;53350;52.210;5.160;2024-02-23T03:00:13;98841.38;;;7.76;76.88
66524;BME280;53350;52.210;5.160;2024-02-23T03:02:41;98852.78;;;7.67;77.16
66524;BME280;53350;52.210;5.160;2024-02-23T03:05:08;98847.81;;;7.62;77.88
66524;BME280;53350;52.210;5.160;2024-02-23T03:07:34;98854.66;;;7.62;77.54
66524;BME280;53350;52.210;5.160;2024-02-23T03:10:01;98856.97;;;7.70;77.30
66524;BME280;53350;52.210;5.160;2024-02-23T03:12:27;98857.75;;;7.72;77.11
66524;BME280;53350;52.210;5.160;2024-02-23T03:14:54;98858.66;;;7.71;77.61
66524;BME280;53350;52.210;5.160;2024-02-23T03:17:21;98849.16;;;7.73;77.17
66524;BME280;53350;52.210;5.160;2024-02-23T03:19:48;98854.28;;;7.73;76.63
66524;BME280;53350;52.210;5.160;2024-02-23T03:22:16;98853.41;;;7.74;76.34
66524;BME280;53350;52.210;5.160;2024-02-23T03:24:42;98856.81;;;7.74;76.77
66524;BME280;53350;52.210;5.160;2024-02-23T03:27:09;98858.53;;;7.74;76.75
66524;BME280;53350;52.210;5.160;2024-02-23T03:29:37;98862.09;;;7.70;77.10
66524;BME280;53350;52.210;5.160;2024-02-23T03:32:04;98862.91;;;7.70;76.94
66524;BME280;53350;52.210;5.160;2024-02-23T03:34:31;98871.56;;;7.68;77.01
66524;BME280;53350;52.210;5.160;2024-02-23T03:36:59;98871.59;;;7.66;76.75
66524;BME280;53350;52.210;5.160;2024-02-23T03:39:27;98880.41;;;7.57;76.68
66524;BME280;53350;52.210;5.160;2024-02-23T03:41:54;98869.47;;;7.52;76.92
66524;BME280;53350;52.210;5.160;2024-02-23T03:44:21;98881.41;;;7.53;76.81
66524;BME280;53350;52.210;5.160;2024-02-23T03:46:47;98874.75;;;7.47;76.75
66524;BME280;53350;52.210;5.160;2024-02-23T03:49:13;98875.03;;;7.38;77.47
66524;BME280;53350;52.210;5.160;2024-02-23T03:51:40;98883.09;;;7.26;77.58
66524;BME280;53350;52.210;5.160;2024-02-23T03:54:08;98877.31;;;7.19;77.30
66524;BME280;53350;52.210;5.160;2024-02-23T03:56:38;98890.88;;;7.23;77.27
66524;BME280;53350;52.210;5.160;2024-02-23T03:59:05;98889.25;;;7.20;77.52
66524;BME280;53350;52.210;5.160;2024-02-23T04:01:34;98887.69;;;7.14;78.05
66524;BME280;53350;52.210;5.160;2024-02-23T04:04:01;98890.16;;;7.18;77.52
66524;BME280;53350;52.210;5.160;2024-02-23T04:06:27;98888.53;;;7.15;77.77
66524;BME280;53350;52.210;5.160;2024-02-23T04:08:54;98884.31;;;7.14;77.54
66524;BME280;53350;52.210;5.160;2024-02-23T04:11:21;98893.06;;;7.07;78.61
66524;BME280;53350;52.210;5.160;2024-02-23T04:13:48;98894.81;;;7.05;78.51
66524;BME280;53350;52.210;5.160;2024-02-23T04:16:14;98896.72;;;6.98;78.50
66524;BME280;53350;52.210;5.160;2024-02-23T04:18:40;98903.50;;;6.99;78.67
66524;BME280;53350;52.210;5.160;2024-02-23T04:21:06;98905.03;;;7.05;77.78
66524;BME280;53350;52.210;5.160;2024-02-23T04:23:33;98908.41;;;7.07;77.99
66524;BME280;53350;52.210;5.160;2024-02-23T04:25:59;98916.00;;;7.10;78.32
66524;BME280;53350;52.210;5.160;2024-02-23T04:28:27;98905.84;;;7.07;78.35
66524;BME280;53350;52.210;5.160;2024-02-23T04:30:56;98916.81;;;7.10;78.00
66524;BME280;53350;52.210;5.160;2024-02-23T04:33:22;98917.69;;;7.09;78.00
66524;BME280;53350;52.210;5.160;2024-02-23T04:35:49;98922.78;;;7.11;78.00
66524;BME280;53350;52.210;5.160;2024-02-23T04:38:15;98926.19;;;7.11;78.12
66524;BME280;53350;52.210;5.160;2024-02-23T04:40:42;98927.84;;;7.14;78.27
66524;BME280;53350;52.210;5.160;2024-02-23T04:43:08;98927.84;;;7.12;78.10
66524;BME280;53350;52.210;5.160;2024-02-23T04:45:36;98917.69;;;7.09;78.43
66524;BME280;53350;52.210;5.160;2024-02-23T04:48:03;98923.63;;;7.11;78.81
66524;BME280;53350;52.210;5.160;2024-02-23T04:50:29;98925.63;;;7.02;79.01
66524;BME280;53350;52.210;5.160;2024-02-23T04:52:56;98931.75;;;6.96;79.51
66524;BME280;53350;52.210;5.160;2024-02-23T04:55:22;98925.81;;;6.95;79.31
66524;BME280;53350;52.210;5.160;2024-02-23T04:57:49;98917.44;;;6.89;79.39
66524;BME280;53350;52.210;5.160;2024-02-23T05:00:16;98919.72;;;7.00;78.98
66524;BME280;53350;52.210;5.160;2024-02-23T05:02:44;98923.78;;;7.07;78.69
66524;BME280;53350;52.210;5.160;2024-02-23T05:05:10;98918.50;;;7.11;78.73
66524;BME280;53350;52.210;5.160;2024-02-23T05:07:37;98930.31;;;7.17;78.79
66524;BME280;53350;52.210;5.160;2024-02-23T05:10:03;98913.06;;;7.22;78.57
66524;BME280;53350;52.210;5.160;2024-02-23T05:12:30;98920.78;;;7.21;78.84
66524;BME280;53350;52.210;5.160;2024-02-23T05:14:56;98925.00;;;7.23;79.02
66524;BME280;53350;52.210;5.160;2024-02-23T05:17:23;98926.72;;;7.23;79.17
66524;BME280;53350;52.210;5.160;2024-02-23T05:19:51;98924.81;;;7.29;79.00
66524;BME280;53350;52.210;5.160;2024-02-23T05:22:17;98914.59;;;7.28;79.06
66524;BME280;53350;52.210;5.160;2024-02-23T05:24:44;98916.94;;;7.36;78.78
66524;BME280;53350;52.210;5.160;2024-02-23T05:27:10;98920.31;;;7.38;78.72
66524;BME280;53350;52.210;5.160;2024-02-23T05:29:37;98929.72;;;7.36;78.91
66524;BME280;53350;52.210;5.160;2024-02-23T05:32:04;98913.50;;;7.37;78.45
66524;BME280;53350;52.210;5.160;2024-02-23T05:34:30;98920.25;;;7.39;78.67
66524;BME280;53350;52.210;5.160;2024-02-23T05:36:58;98921.78;;;7.45;78.73
66524;BME280;53350;52.210;5.160;2024-02-23T05:39:25;98924.34;;;7.45;78.60
66524;BME280;53350;52.210;5.160;2024-02-23T05:41:51;98924.16;;;7.51;78.51
66524;BME280;53350;52.210;5.160;2024-02-23T05:44:17;98924.16;;;7.51;78.28
66524;BME280;53350;52.210;5.160;2024-02-23T05:46:44;98924.25;;;7.48;78.09
66524;BME280;53350;52.210;5.160;2024-02-23T05:49:11;98925.94;;;7.49;78.13
66524;BME280;53350;52.210;5.160;2024-02-23T05:51:37;98914.88;;;7.47;78.15
66524;BME280;53350;52.210;5.160;2024-02-23T05:54:05;98921.78;;;7.45;78.35
66524;BME280;53350;52.210;5.160;2024-02-23T05:56:31;98916.72;;;7.43;78.16
66524;BME280;53350;52.210;5.160;2024-02-23T05:58:58;98924.75;;;7.31;78.50
66524;BME280;53350;52.210;5.160;2024-02-23T06:01:25;98918.00;;;7.28;78.70
66524;BME280;53350;52.210;5.160;2024-02-23T06:03:51;98914.75;;;7.23;79.44
66524;BME280;53350;52.210;5.160;2024-02-23T06:06:18;98920.50;;;7.31;78.75
66524;BME280;53350;52.210;5.160;2024-02-23T06:08:45;98915.47;;;7.27;79.37
66524;BME280;53350;52.210;5.160;2024-02-23T06:11:12;98923.88;;;7.32;78.57
66524;BME280;53350;52.210;5.160;2024-02-23T06:13:39;98914.75;;;7.23;78.46
66524;BME280;53350;52.210;5.160;2024-02-23T06:16:09;98930.03;;;7.26;78.76
66524;BME280;53350;52.210;5.160;2024-02-23T06:18:36;98928.13;;;7.33;78.69
66524;BME280;53350;52.210;5.160;2024-02-23T06:21:11;98935.91;;;7.28;79.17
66524;BME280;53350;52.210;5.160;2024-02-23T06:23:37;98933.09;;;7.38;78.69
66524;BME280;53350;52.210;5.160;2024-02-23T06:26:05;98935.38;;;7.47;78.28
66524;BME280;53350;52.210;5.160;2024-02-23T06:28:33;98934.50;;;7.48;78.35
66524;BME280;53350;52.210;5.160;2024-02-23T06:30:59;98939.25;;;7.60;77.63
66524;BME280;53350;52.210;5.160;2024-02-23T06:33:26;98945.25;;;7.59;77.71
66524;BME280;53350;52.210;5.160;2024-02-23T06:35:52;98944.03;;;7.44;78.02
66524;BME280;53350;52.210;5.160;2024-02-23T06:38:19;98943.59;;;7.30;77.92
66524;BME280;53350;52.210;5.160;2024-02-23T06:40:45;98943.34;;;7.38;78.08
66524;BME280;53350;52.210;5.160;2024-02-23T06:43:12;98933.09;;;7.38;78.27
66524;BME280;53350;52.210;5.160;2024-02-23T06:45:40;98944.41;;;7.30;77.98
66524;BME280;53350;52.210;5.160;2024-02-23T06:48:07;98940.59;;;7.16;78.52
66524;BME280;53350;52.210;5.160;2024-02-23T06:50:34;98940.25;;;6.98;78.63
66524;BME280;53350;52.210;5.160;2024-02-23T06:53:01;98934.47;;;7.20;78.60
66524;BME280;53350;52.210;5.160;2024-02-23T06:55:28;98926.78;;;7.21;78.38
66524;BME280;53350;52.210;5.160;2024-02-23T06:57:55;98936.81;;;6.97;78.30
66524;BME280;53350;52.210;5.160;2024-02-23T07:00:21;98937.34;;;7.09;78.11
66524;BME280;53350;52.210;5.160;2024-02-23T07:02:49;98943.94;;;7.18;78.24
66524;BME280;53350;52.210;5.160;2024-02-23T07:05:16;98931.91;;;7.20;77.88
66524;BME280;53350;52.210;5.160;2024-02-23T07:07:43;98942.34;;;7.13;77.93
66524;BME280;53350;52.210;5.160;2024-02-23T07:10:09;98938.94;;;7.13;78.09
66524;BME280;53350;52.210;5.160;2024-02-23T07:12:37;98939.47;;;7.24;77.89
66524;BME280;53350;52.210;5.160;2024-02-23T07:15:04;98946.25;;;7.25;77.75
66524;BME280;53350;52.210;5.160;2024-02-23T07:17:31;98939.81;;;7.12;77.37
66524;BME280;53350;52.210;5.160;2024-02-23T07:19:59;98942.09;;;7.23;77.46
66524;BME280;53350;52.210;5.160;2024-02-23T07:22:30;98939.47;;;7.24;77.41
66524;BME280;53350;52.210;5.160;2024-02-23T07:24:57;98942.00;;;7.26;77.95
66524;BME280;53350;52.210;5.160;2024-02-23T07:27:23;98942.00;;;7.26;77.30
66524;BME280;53350;52.210;5.160;2024-02-23T07:29:50;98950.94;;;7.11;76.57
66524;BME280;53350;52.210;5.160;2024-02-23T07:32:16;98940.63;;;7.14;76.99
66524;BME280;53350;52.210;5.160;2024-02-23T07:34:43;98946.00;;;7.35;76.26
66524;BME280;53350;52.210;5.160;2024-02-23T07:37:10;98937.31;;;7.40;76.00
66524;BME280;53350;52.210;5.160;2024-02-23T07:39:37;98936.44;;;7.40;76.24
66524;BME280;53350;52.210;5.160;2024-02-23T07:42:04;98931.31;;;7.40;76.31
66524;BME280;53350;52.210;5.160;2024-02-23T07:44:31;98936.78;;;7.29;75.60
66524;BME280;53350;52.210;5.160;2024-02-23T07:46:57;98926.09;;;7.43;75.30
66524;BME280;53350;52.210;5.160;2024-02-23T07:49:24;98921.69;;;7.48;75.73
66524;BME280;53350;52.210;5.160;2024-02-23T07:51:53;98915.44;;;7.57;74.97
66524;BME280;53350;52.210;5.160;2024-02-23T07:54:21;98915.41;;;7.58;74.66
66524;BME280;53350;52.210;5.160;2024-02-23T07:56:47;98921.94;;;7.40;74.68
66524;BME280;53350;52.210;5.160;2024-02-23T07:59:14;98912.63;;;7.38;75.13
66524;BME280;53350;52.210;5.160;2024-02-23T08:01:40;98915.22;;;7.36;75.89
66524;BME280;53350;52.210;5.160;2024-02-23T08:04:07;98903.16;;;7.40;76.16
66524;BME280;53350;52.210;5.160;2024-02-23T08:06:33;98902.47;;;7.35;76.07
66524;BME280;53350;52.210;5.160;2024-02-23T08:09:00;98908.47;;;7.34;76.20
66524;BME280;53350;52.210;5.160;2024-02-23T08:11:28;98902.41;;;7.36;76.86
66524;BME280;53350;52.210;5.160;2024-02-23T08:13:54;98894.88;;;7.31;76.61
66524;BME280;53350;52.210;5.160;2024-02-23T08:16:21;98899.75;;;7.39;76.36
66524;BME280;53350;52.210;5.160;2024-02-23T08:18:47;98892.69;;;7.47;76.30
66524;BME280;53350;52.210;5.160;2024-02-23T08:21:14;98907.50;;;7.38;76.39
66524;BME280;53350;52.210;5.160;2024-02-23T08:23:41;98895.34;;;7.44;76.49
66524;BME280;53350;52.210;5.160;2024-02-23T08:26:07;98896.69;;;7.56;76.34
66524;BME280;53350;52.210;5.160;2024-02-23T08:28:36;98900.28;;;7.51;77.53
66524;BME280;53350;52.210;5.160;2024-02-23T08:31:03;98902.59;;;7.58;76.59
66524;BME280;53350;52.210;5.160;2024-02-23T08:33:30;98895.25;;;7.47;77.54
66524;BME280;53350;52.210;5.160;2024-02-23T08:35:56;98898.38;;;7.29;78.00
66524;BME280;53350;52.210;5.160;2024-02-23T08:38:23;98890.44;;;7.37;79.00
66524;BME280;53350;52.210;5.160;2024-02-23T08:40:49;98897.56;;;7.27;78.75
66524;BME280;53350;52.210;5.160;2024-02-23T08:43:16;98882.13;;;7.30;79.06
66524;BME280;53350;52.210;5.160;2024-02-23T08:45:43;98884.50;;;7.36;79.18
66524;BME280;53350;52.210;5.160;2024-02-23T08:48:09;98894.94;;;7.30;78.91
66524;BME280;53350;52.210;5.160;2024-02-23T08:50:40;98888.91;;;7.31;79.34
66524;BME280;53350;52.210;5.160;2024-02-23T08:53:06;98895.75;;;7.30;79.67
66524;BME280;53350;52.210;5.160;2024-02-23T08:55:33;98895.38;;;7.43;79.04
66524;BME280;53350;52.210;5.160;2024-02-23T08:57:59;98896.28;;;7.42;79.40
66524;BME280;53350;52.210;5.160;2024-02-23T09:00:26;98900.47;;;7.44;79.82
66524;BME280;53350;52.210;5.160;2024-02-23T09:02:54;98889.38;;;7.44;79.97
66524;BME280;53350;52.210;5.160;2024-02-23T09:05:20;98892.75;;;7.46;79.82
66524;BME280;53350;52.210;5.160;2024-02-23T09:07:47;98894.44;;;7.45;79.78
66524;BME280;53350;52.210;5.160;2024-02-23T09:10:13;98890.75;;;7.54;79.70
66524;BME280;53350;52.210;5.160;2024-02-23T09:12:40;98899.56;;;7.45;79.57
66524;BME280;53350;52.210;5.160;2024-02-23T09:15:07;98891.66;;;7.53;79.95
66524;BME280;53350;52.210;5.160;2024-02-23T09:17:34;98907.47;;;7.66;79.27
66524;BME280;53350;52.210;5.160;2024-02-23T09:20:01;98920.81;;;7.76;78.98
66524;BME280;53350;52.210;5.160;2024-02-23T09:22:28;98913.09;;;7.77;79.63
66524;BME280;53350;52.210;5.160;2024-02-23T09:24:54;98911.91;;;7.61;80.99
66524;BME280;53350;52.210;5.160;2024-02-23T09:27:21;98904.28;;;7.59;80.58
66524;BME280;53350;52.210;5.160;2024-02-23T09:29:48;98911.09;;;7.60;80.19
66524;BME280;53350;52.210;5.160;2024-02-23T09:32:14;98904.06;;;7.65;79.98
66524;BME280;53350;52.210;5.160;2024-02-23T09:34:42;98907.28;;;7.72;80.05
66524;BME280;53350;52.210;5.160;2024-02-23T09:37:10;98911.44;;;7.76;80.30
66524;BME280;53350;52.210;5.160;2024-02-23T09:39:36;98908.31;;;7.66;80.41
66524;BME280;53350;52.210;5.160;2024-02-23T09:42:05;98918.16;;;7.79;80.13
66524;BME280;53350;52.210;5.160;2024-02-23T09:44:34;98914.94;;;7.74;80.44
66524;BME280;53350;52.210;5.160;2024-02-23T09:47:01;98900.97;;;7.82;80.72
66524;BME280;53350;52.210;5.160;2024-02-23T09:49:33;98906.66;;;7.92;79.63
66524;BME280;53350;52.210;5.160;2024-02-23T09:52:02;98906.66;;;7.92;80.63
66524;BME280;53350;52.210;5.160;2024-02-23T09:54:31;98894.56;;;7.96;79.92
66524;BME280;53350;52.210;5.160;2024-02-23T09:56:58;98917.41;;;8.02;80.05
66524;BME280;53350;52.210;5.160;2024-02-23T09:59:24;98916.16;;;8.14;79.81
66524;BME280;53350;52.210;5.160;2024-02-23T10:01:53;98919.47;;;8.17;80.21
66524;BME280;53350;52.210;5.160;2024-02-23T10:04:20;98927.94;;;8.19;80.28
66524;BME280;53350;52.210;5.160;2024-02-23T10:06:47;98928.50;;;8.29;79.50
66524;BME280;53350;52.210;5.160;2024-02-23T10:09:13;98913.47;;;8.18;78.99
66524;BME280;53350;52.210;5.160;2024-02-23T10:11:41;98928.53;;;8.28;78.86
66524;BME280;53350;52.210;5.160;2024-02-23T10:14:08;98931.97;;;8.27;79.17
66524;BME280;53350;52.210;5.160;2024-02-23T10:16:34;98936.78;;;8.11;79.09
66524;BME280;53350;52.210;5.160;2024-02-23T10:19:01;98911.22;;;8.34;78.50
66524;BME280;53350;52.210;5.160;2024-02-23T10:21:28;98939.56;;;8.31;77.98
66524;BME280;53350;52.210;5.160;2024-02-23T10:23:55;98934.50;;;8.28;78.20
66524;BME280;53350;52.210;5.160;2024-02-23T10:26:21;98940.53;;;8.27;78.33
66524;BME280;53350;52.210;5.160;2024-02-23T10:28:49;98946.75;;;8.20;79.21
66524;BME280;53350;52.210;5.160;2024-02-23T10:31:17;98958.06;;;8.40;77.87
66524;BME280;53350;52.210;5.160;2024-02-23T10:33:44;98955.56;;;8.38;78.08
66524;BME280;53350;52.210;5.160;2024-02-23T10:36:15;98946.50;;;8.55;77.39
66524;BME280;53350;52.210;5.160;2024-02-23T10:38:45;98955.78;;;8.57;77.78
66524;BME280;53350;52.210;5.160;2024-02-23T10:41:13;98945.34;;;8.63;77.62
66524;BME280;53350;52.210;5.160;2024-02-23T10:43:41;98957.19;;;8.66;77.25
66524;BME280;53350;52.210;5.160;2024-02-23T10:46:12;98958.84;;;8.68;77.71
66524;BME280;53350;52.210;5.160;2024-02-23T10:48:39;98959.41;;;8.77;77.19
66524;BME280;53350;52.210;5.160;2024-02-23T10:51:06;98961.81;;;8.81;77.35
66524;BME280;53350;52.210;5.160;2024-02-23T10:53:34;98955.09;;;8.77;77.61
66524;BME280;53350;52.210;5.160;2024-02-23T10:56:00;98966.16;;;8.79;77.87
66524;BME280;53350;52.210;5.160;2024-02-23T10:58:28;98971.13;;;8.84;77.75
66524;BME280;53350;52.210;5.160;2024-02-23T11:00:59;98977.97;;;8.85;77.60
66524;BME280;53350;52.210;5.160;2024-02-23T11:03:29;98970.78;;;8.93;77.23
66524;BME280;53350;52.210;5.160;2024-02-23T11:05:56;98972.25;;;9.00;77.00
66524;BME280;53350;52.210;5.160;2024-02-23T11:08:23;98963.78;;;8.98;77.04
66524;BME280;53350;52.210;5.160;2024-02-23T11:10:50;98978.34;;;8.98;77.61
66524;BME280;53350;52.210;5.160;2024-02-23T11:13:17;98969.75;;;9.22;75.92
66524;BME280;53350;52.210;5.160;2024-02-23T11:15:44;98974.09;;;9.20;76.24
66524;BME280;53350;52.210;5.160;2024-02-23T11:18:23;98973.03;;;9.26;76.10
66524;BME280;53350;52.210;5.160;2024-02-23T11:20:55;98971.75;;;9.38;74.84
66524;BME280;53350;52.210;5.160;2024-02-23T11:23:22;98971.50;;;9.44;74.74
66524;BME280;53350;52.210;5.160;2024-02-23T11:26:04;98982.56;;;9.46;74.25
66524;BME280;53350;52.210;5.160;2024-02-23T11:28:32;98985.22;;;9.45;74.54
66524;BME280;53350;52.210;5.160;2024-02-23T11:30:58;98983.00;;;9.57;74.03
66524;BME280;53350;52.210;5.160;2024-02-23T11:33:27;98981.34;;;9.56;74.62
66524;BME280;53350;52.210;5.160;2024-02-23T11:36:06;98981.09;;;9.63;74.33
66524;BME280;53350;52.210;5.160;2024-02-23T11:38:32;98982.28;;;9.76;73.90
66524;BME280;53350;52.210;5.160;2024-02-23T11:40:59;98988.97;;;9.80;73.20
66524;BME280;53350;52.210;5.160;2024-02-23T11:43:26;98994.47;;;9.93;72.71
66524;BME280;53350;52.210;5.160;2024-02-23T11:45:53;98994.84;;;9.84;72.18
66524;BME280;53350;52.210;5.160;2024-02-23T11:48:19;98996.09;;;9.96;71.99
66524;BME280;53350;52.210;5.160;2024-02-23T11:50:47;99001.19;;;9.97;72.03
66524;BME280;53350;52.210;5.160;2024-02-23T11:53:16;98997.06;;;9.93;71.54
66524;BME280;53350;52.210;5.160;2024-02-23T11:55:44;99013.03;;;10.01;71.13
66524;BME280;53350;52.210;5.160;2024-02-23T11:58:11;99014.47;;;10.08;70.81
66524;BME280;53350;52.210;5.160;2024-02-23T12:00:37;99006.63;;;10.12;70.43
66524;BME280;53350;52.210;5.160;2024-02-23T12:03:05;99015.34;;;10.07;70.17
66524;BME280;53350;52.210;5.160;2024-02-23T12:05:32;99009.38;;;10.07;71.30
66524;BME280;53350;52.210;5.160;2024-02-23T12:07:59;99003.50;;;10.03;71.41
66524;BME280;53350;52.210;5.160;2024-02-23T12:10:27;99009.06;;;10.15;71.06
66524;BME280;53350;52.210;5.160;2024-02-23T12:12:54;99003.78;;;10.18;70.90
66524;BME280;53350;52.210;5.160;2024-02-23T12:15:21;99010.38;;;10.25;70.62
66524;BME280;53350;52.210;5.160;2024-02-23T12:17:47;99008.28;;;10.35;69.76
66524;BME280;53350;52.210;5.160;2024-02-23T12:20:14;99009.22;;;10.32;70.52
66524;BME280;53350;52.210;5.160;2024-02-23T12:22:40;99005.22;;;10.25;69.35
66524;BME280;53350;52.210;5.160;2024-02-23T12:25:07;99011.22;;;10.25;69.47
66524;BME280;53350;52.210;5.160;2024-02-23T12:27:35;99014.44;;;10.31;68.83
66524;BME280;53350;52.210;5.160;2024-02-23T12:30:02;99029.81;;;10.32;69.22
66524;BME280;53350;52.210;5.160;2024-02-23T12:32:29;99014.63;;;10.26;70.00
66524;BME280;53350;52.210;5.160;2024-02-23T12:34:55;99024.66;;;10.32;69.70
66524;BME280;53350;52.210;5.160;2024-02-23T12:37:22;99024.28;;;10.43;69.87
66524;BME280;53350;52.210;5.160;2024-02-23T12:39:48;99030.91;;;10.49;70.06
66524;BME280;53350;52.210;5.160;2024-02-23T12:42:15;99026.03;;;10.63;69.84
66524;BME280;53350;52.210;5.160;2024-02-23T12:44:43;99026.31;;;10.55;69.30
66524;BME280;53350;52.210;5.160;2024-02-23T12:47:09;99036.00;;;10.71;69.55
66524;BME280;53350;52.210;5.160;2024-02-23T12:49:36;99028.97;;;10.74;68.69
66524;BME280;53350;52.210;5.160;2024-02-23T12:52:03;99046.03;;;10.77;68.33
66524;BME280;53350;52.210;5.160;2024-02-23T12:54:29;99040.34;;;10.69;68.67
66524;BME280;53350;52.210;5.160;2024-02-23T12:56:55;99046.50;;;10.66;68.38
66524;BME280;53350;52.210;5.160;2024-02-23T12:59:22;99043.13;;;10.64;68.50
66524;BME280;53350;52.210;5.160;2024-02-23T13:01:50;99046.56;;;10.65;68.09
66524;BME280;53350;52.210;5.160;2024-02-23T13:04:16;99041.41;;;10.65;68.20
66524;BME280;53350;52.210;5.160;2024-02-23T13:06:43;99054.28;;;10.65;67.88
66524;BME280;53350;52.210;5.160;2024-02-23T13:09:09;99050.16;;;10.60;67.60